createdAt,value
2022-11-17T00:03:59.817Z,4.03
2022-11-17T00:09:04.761Z,3.83
2022-11-17T00:14:27.427Z,4.10
2022-11-17T00:19:47.456Z,4.17
2022-11-17T00:24:52.792Z,3.90
2022-11-17T00:29:58.287Z,3.87
2022-11-17T00:35:06.613Z,4.43
2022-11-17T00:40:15.704Z,3.90
2022-11-17T00:45:21.036Z,3.87
2022-11-17T00:50:28.607Z,3.90
2022-11-17T00:55:34.948Z,3.63
2022-11-17T01:00:40.375Z,3.70
2022-11-17T01:05:47.949Z,3.00
2022-11-17T01:10:53.049Z,3.70
2022-11-17T01:15:57.975Z,3.67
2022-11-17T01:21:12.513Z,3.30
2022-11-17T01:26:18.726Z,2.97
2022-11-17T01:31:25.950Z,3.20
2022-11-17T01:36:58.568Z,3.10
2022-11-17T01:42:08.408Z,3.40
2022-11-17T01:47:19.498Z,3.37
2022-11-17T01:52:28.400Z,3.40
2022-11-17T01:57:40.490Z,3.60
2022-11-17T02:02:48.091Z,3.20
2022-11-17T02:07:57.573Z,3.20
2022-11-17T02:13:06.598Z,3.70
2022-11-17T02:18:11.968Z,3.30
2022-11-17T02:23:55.676Z,3.67
2022-11-17T02:29:09.122Z,3.70
2022-11-17T02:34:22.391Z,3.47
2022-11-17T02:39:32.386Z,3.70
2022-11-17T02:44:46.006Z,4.53
2022-11-17T02:49:56.049Z,4.80
2022-11-17T02:55:03.069Z,5.07
2022-11-17T03:00:14.151Z,4.30
2022-11-17T03:05:26.114Z,4.63
2022-11-17T03:10:39.261Z,4.07
2022-11-17T03:15:54.209Z,4.17
2022-11-17T03:21:08.663Z,4.30
2022-11-17T03:26:18.674Z,4.33
2022-11-17T03:31:29.471Z,4.57
2022-11-17T03:36:38.444Z,5.23
2022-11-17T03:41:47.449Z,4.37
2022-11-17T03:46:57.878Z,5.00
2022-11-17T03:52:04.124Z,4.70
2022-11-17T03:57:16.124Z,3.90
2022-11-17T04:02:25.416Z,4.30
2022-11-17T04:07:30.607Z,5.00
2022-11-17T04:12:48.015Z,4.63
2022-11-17T04:17:55.424Z,3.90
2022-11-17T04:23:11.913Z,4.23
2022-11-17T04:28:28.987Z,4.13
2022-11-17T04:33:42.552Z,3.77
2022-11-17T04:38:49.477Z,4.53
2022-11-17T04:43:57.951Z,4.63
2022-11-17T04:49:06.439Z,3.57
2022-11-17T04:54:13.764Z,3.63
2022-11-17T04:59:18.874Z,3.73
2022-11-17T05:04:38.897Z,3.83
2022-11-17T05:09:43.904Z,3.83
2022-11-17T05:14:50.597Z,3.97
2022-11-17T05:20:01.466Z,3.87
2022-11-17T05:25:07.272Z,3.90
2022-11-17T05:30:13.982Z,4.27
2022-11-17T05:35:21.471Z,4.33
2022-11-17T05:40:28.905Z,3.63
2022-11-17T05:45:33.870Z,3.90
2022-11-17T05:50:42.762Z,3.77
2022-11-17T05:55:47.891Z,3.80
2022-11-17T06:00:55.079Z,4.10
2022-11-17T06:06:02.756Z,3.40
2022-11-17T06:11:10.034Z,3.63
2022-11-17T06:16:23.571Z,3.53
2022-11-17T06:21:49.453Z,3.57
2022-11-17T06:26:57.015Z,4.00
2022-11-17T06:32:07.070Z,3.53
2022-11-17T06:37:25.218Z,3.70
2022-11-17T06:42:42.647Z,5.10
2022-11-17T06:47:50.042Z,4.23
2022-11-17T06:53:08.009Z,3.83
2022-11-17T06:58:17.653Z,4.43
2022-11-17T07:03:23.845Z,3.33
2022-11-17T07:08:32.142Z,5.30
2022-11-17T07:13:38.044Z,3.10
2022-11-17T07:18:45.895Z,3.17
2022-11-17T07:23:57.140Z,3.20
2022-11-17T07:29:02.247Z,2.93
2022-11-17T07:34:07.670Z,3.33
2022-11-17T07:39:21.213Z,3.47
2022-11-17T07:44:28.112Z,4.00
2022-11-17T07:49:32.959Z,3.30
2022-11-17T07:55:02.962Z,3.03
2022-11-17T08:00:21.655Z,3.93
2022-11-17T08:05:30.709Z,2.67
2022-11-17T08:10:38.376Z,3.20
2022-11-17T08:15:43.490Z,3.27
2022-11-17T08:20:49.257Z,3.47
2022-11-17T08:25:56.831Z,2.80
2022-11-17T08:31:04.030Z,3.57
2022-11-17T08:36:10.023Z,3.17
2022-11-17T08:41:17.577Z,3.60
2022-11-17T08:46:22.549Z,4.07
2022-11-17T08:51:29.392Z,5.73
2022-11-17T08:56:36.928Z,4.83
2022-11-17T09:01:42.486Z,4.10
2022-11-17T09:06:55.749Z,3.13
2022-11-17T09:12:13.847Z,3.10
2022-11-17T09:17:19.701Z,4.37
2022-11-17T09:22:24.988Z,3.33
2022-11-17T09:27:32.644Z,3.30
2022-11-17T09:32:41.058Z,3.00
2022-11-17T09:37:51.411Z,3.07
2022-11-17T09:42:59.033Z,3.23
2022-11-17T09:48:38.964Z,3.20
2022-11-17T09:53:43.674Z,3.93
2022-11-17T09:59:00.294Z,3.97
2022-11-17T10:04:11.938Z,4.30
2022-11-17T10:09:26.068Z,4.30
2022-11-17T10:14:44.060Z,3.73
2022-11-17T10:19:49.247Z,4.63
2022-11-17T10:24:58.742Z,4.10
2022-11-17T10:30:11.614Z,4.80
2022-11-17T10:35:19.335Z,4.00
2022-11-17T10:40:27.222Z,4.80
2022-11-17T10:45:37.591Z,4.90
2022-11-17T10:50:54.763Z,4.30
2022-11-17T10:56:07.561Z,4.20
2022-11-17T11:01:19.793Z,3.50
2022-11-17T11:06:32.833Z,3.70
2022-11-17T11:11:47.490Z,3.87
2022-11-17T11:16:55.958Z,3.63
2022-11-17T11:22:31.201Z,4.40
2022-11-17T11:28:07.449Z,4.20
2022-11-17T11:33:28.452Z,4.17
2022-11-17T11:38:46.902Z,5.00
2022-11-17T11:44:20.903Z,4.47
2022-11-17T11:49:35.450Z,4.23
2022-11-17T11:54:50.732Z,4.23
2022-11-17T12:00:04.641Z,3.80
2022-11-17T12:05:27.331Z,4.00
2022-11-17T12:10:39.646Z,4.37
2022-11-17T12:15:51.474Z,4.10
2022-11-17T12:21:09.354Z,4.00
2022-11-17T12:26:25.490Z,4.70
2022-11-17T12:31:46.479Z,4.60
2022-11-17T12:37:26.540Z,4.10
2022-11-17T12:42:33.714Z,4.10
2022-11-17T12:48:11.286Z,4.23
2022-11-17T12:53:36.349Z,4.13
2022-11-17T12:58:51.790Z,4.53
2022-11-17T13:04:03.551Z,4.73
2022-11-17T13:09:15.457Z,3.93
2022-11-17T13:14:20.442Z,4.97
2022-11-17T13:19:37.793Z,4.37
2022-11-17T13:24:47.499Z,5.17
2022-11-17T13:29:53.546Z,4.77
2022-11-17T13:35:00.998Z,4.90
2022-11-17T13:40:22.829Z,5.33
2022-11-17T13:45:30.775Z,5.50
2022-11-17T13:50:40.069Z,6.07
2022-11-17T13:55:51.774Z,5.17
2022-11-17T14:01:01.459Z,5.63
2022-11-17T14:06:08.675Z,5.40
2022-11-17T14:11:25.783Z,5.93
2022-11-17T14:16:35.777Z,6.63
2022-11-17T14:22:01.194Z,6.13
2022-11-17T14:28:02.558Z,7.57
2022-11-17T14:33:13.150Z,7.03
2022-11-17T14:38:22.112Z,6.63
2022-11-17T14:43:29.831Z,7.43
2022-11-17T14:48:37.656Z,5.40
2022-11-17T14:59:06.669Z,6.47
2022-11-17T15:09:44.195Z,5.80
2022-11-17T15:15:01.139Z,6.47
2022-11-17T15:20:06.908Z,7.20
2022-11-17T15:25:12.858Z,6.67
2022-11-17T15:30:20.949Z,6.40
2022-11-17T15:35:25.870Z,6.73
2022-11-17T15:40:31.024Z,6.80
2022-11-17T15:45:38.936Z,5.93
2022-11-17T15:50:44.298Z,6.47
2022-11-17T15:55:50.883Z,7.70
2022-11-17T16:01:12.285Z,8.77
2022-11-17T16:06:17.446Z,7.00
2022-11-17T16:11:25.085Z,6.57
2022-11-17T16:16:35.086Z,7.00
2022-11-17T16:21:40.768Z,6.53
2022-11-17T16:26:46.409Z,6.70
2022-11-17T16:31:54.085Z,7.67
2022-11-17T16:36:59.057Z,6.53
2022-11-17T16:42:04.059Z,6.13
2022-11-17T16:47:12.769Z,6.57
2022-11-17T16:52:20.322Z,6.30
2022-11-17T16:57:25.442Z,7.30
2022-11-17T17:02:44.707Z,7.43
2022-11-17T17:07:49.630Z,7.70
2022-11-17T17:12:56.215Z,6.77
2022-11-17T17:18:05.121Z,8.33
2022-11-17T17:23:09.980Z,8.90
2022-11-17T17:28:14.988Z,8.37
2022-11-17T17:33:22.641Z,9.47
2022-11-17T17:38:27.944Z,9.23
2022-11-17T17:43:33.160Z,8.97
2022-11-17T17:48:43.461Z,8.47
2022-11-17T17:53:50.249Z,9.43
2022-11-17T17:58:58.080Z,9.30
2022-11-17T18:04:15.280Z,8.17
2022-11-17T18:09:21.359Z,8.60
2022-11-17T18:14:26.871Z,10.20
2022-11-17T18:19:34.831Z,9.03
2022-11-17T18:24:39.912Z,11.07
2022-11-17T18:29:45.256Z,9.03
2022-11-17T18:34:54.494Z,10.07
2022-11-17T18:39:59.660Z,9.80
2022-11-17T18:45:05.161Z,11.80
2022-11-17T18:50:13.418Z,9.80
2022-11-17T18:55:22.184Z,11.47
2022-11-17T19:00:30.417Z,11.27
2022-11-17T19:05:39.726Z,10.93
2022-11-17T19:10:54.681Z,10.70
2022-11-17T19:16:06.213Z,12.37
2022-11-17T19:21:15.806Z,10.63
2022-11-17T19:26:22.564Z,11.47
2022-11-17T19:31:28.318Z,11.77
2022-11-17T19:36:37.585Z,12.03
2022-11-17T19:41:43.829Z,12.40
2022-11-17T19:46:49.676Z,11.63
2022-11-17T19:51:57.496Z,11.83
2022-11-17T19:57:03.016Z,12.33
2022-11-17T20:02:08.395Z,11.87
2022-11-17T20:07:16.944Z,12.40
2022-11-17T20:12:23.486Z,11.27
2022-11-17T20:17:28.979Z,11.63
2022-11-17T20:22:37.293Z,13.47
2022-11-17T20:27:43.200Z,13.77
2022-11-17T20:32:48.719Z,13.33
2022-11-17T20:37:56.714Z,14.37
2022-11-17T20:43:05.071Z,13.93
2022-11-17T20:48:10.461Z,15.07
2022-11-17T20:53:19.938Z,16.20
2022-11-17T20:58:28.978Z,15.90
2022-11-17T21:03:34.267Z,15.33
2022-11-17T21:08:43.739Z,16.67
2022-11-17T21:13:48.947Z,17.30
2022-11-17T21:18:53.823Z,17.90
2022-11-17T21:24:01.459Z,18.03
2022-11-17T21:29:07.256Z,17.10
2022-11-17T21:34:18.543Z,18.57
2022-11-17T21:39:26.123Z,18.50
2022-11-17T21:44:30.990Z,18.03
2022-11-17T21:49:36.109Z,17.37
2022-11-17T21:54:44.613Z,18.87
2022-11-17T21:59:50.463Z,17.17
2022-11-17T22:04:55.395Z,18.97
2022-11-17T22:10:03.090Z,19.90
2022-11-17T22:15:11.817Z,18.30
2022-11-17T22:20:17.092Z,17.77
2022-11-17T22:25:44.188Z,18.97
2022-11-17T22:30:49.618Z,18.27
2022-11-17T22:35:55.556Z,21.10
2022-11-17T22:41:08.237Z,20.30
2022-11-17T22:46:14.578Z,19.50
2022-11-17T22:51:42.845Z,20.40
2022-11-17T22:56:50.509Z,20.83
2022-11-17T23:01:55.647Z,22.93
2022-11-17T23:07:00.660Z,20.43
2022-11-17T23:12:09.054Z,21.17
2022-11-17T23:17:14.318Z,20.10
2022-11-17T23:22:19.525Z,19.80
2022-11-17T23:27:30.823Z,20.53
2022-11-17T23:32:35.938Z,21.47
2022-11-17T23:37:41.600Z,20.30
2022-11-17T23:42:49.103Z,20.83
2022-11-17T23:47:54.050Z,19.40
2022-11-17T23:52:58.949Z,19.23
2022-11-17T23:58:06.835Z,19.60
